createdAt,value
2019-02-16T00:01:43.389Z,-2.70
2019-02-16T00:04:11.819Z,-2.50
2019-02-16T00:06:39.354Z,-2.60
2019-02-16T00:09:06.819Z,-2.80
2019-02-16T00:11:34.164Z,-2.80
2019-02-16T00:14:01.716Z,-2.90
2019-02-16T00:16:29.139Z,-2.90
2019-02-16T00:18:56.512Z,-3.00
2019-02-16T00:21:23.900Z,-3.10
2019-02-16T00:23:51.216Z,-3.20
2019-02-16T00:26:18.703Z,-3.20
2019-02-16T00:28:46.141Z,-3.20
2019-02-16T00:31:13.967Z,-3.20
2019-02-16T00:33:41.611Z,-3.10
2019-02-16T00:36:09.328Z,-3.10
2019-02-16T00:38:37.365Z,-3.10
2019-02-16T00:41:05.299Z,-3.10
2019-02-16T00:43:32.731Z,-3.00
2019-02-16T00:46:00.060Z,-2.90
2019-02-16T00:48:27.540Z,-2.80
2019-02-16T00:50:54.873Z,-3.00
2019-02-16T00:53:22.351Z,-3.20
2019-02-16T00:55:49.781Z,-3.20
2019-02-16T00:58:17.168Z,-3.10
2019-02-16T01:00:44.587Z,-3.00
2019-02-16T01:03:12.053Z,-3.00
2019-02-16T01:05:41.200Z,-3.00
2019-02-16T01:08:10.251Z,-2.90
2019-02-16T01:10:37.656Z,-2.70
2019-02-16T01:13:04.993Z,-2.70
2019-02-16T01:15:33.652Z,-2.70
2019-02-16T01:18:01.021Z,-2.70
2019-02-16T01:20:30.397Z,-2.50
2019-02-16T01:22:58.788Z,-2.50
2019-02-16T01:25:26.072Z,-2.60
2019-02-16T01:27:53.414Z,-2.60
2019-02-16T01:30:20.647Z,-2.60
2019-02-16T01:32:48.132Z,-2.60
2019-02-16T01:35:15.363Z,-2.60
2019-02-16T01:37:42.528Z,-2.60
2019-02-16T01:40:10.044Z,-2.70
2019-02-16T01:42:37.530Z,-2.70
2019-02-16T01:45:05.363Z,-2.80
2019-02-16T01:47:32.871Z,-2.80
2019-02-16T01:50:01.128Z,-2.90
2019-02-16T01:52:30.076Z,-3.10
2019-02-16T01:54:57.395Z,-3.10
2019-02-16T01:57:25.931Z,-3.00
2019-02-16T01:59:53.415Z,-3.00
2019-02-16T02:02:20.727Z,-3.20
2019-02-16T02:04:48.322Z,-3.30
2019-02-16T02:07:15.752Z,-3.30
2019-02-16T02:09:43.107Z,-3.40
2019-02-16T02:12:10.803Z,-3.50
2019-02-16T02:14:38.241Z,-3.60
2019-02-16T02:17:05.716Z,-3.70
2019-02-16T02:19:33.131Z,-3.70
2019-02-16T02:22:00.691Z,-3.70
2019-02-16T02:24:28.086Z,-3.80
2019-02-16T02:26:55.400Z,-3.80
2019-02-16T02:29:22.814Z,-3.80
2019-02-16T02:31:50.050Z,-3.80
2019-02-16T02:34:17.501Z,-3.80
2019-02-16T02:36:46.417Z,-3.90
2019-02-16T02:39:13.802Z,-3.90
2019-02-16T02:41:42.768Z,-4.00
2019-02-16T02:44:12.086Z,-4.00
2019-02-16T02:46:41.024Z,-4.00
2019-02-16T02:49:08.442Z,-3.90
2019-02-16T02:51:35.652Z,-4.00
2019-02-16T02:54:03.057Z,-4.10
2019-02-16T02:56:30.532Z,-4.20
2019-02-16T02:58:58.903Z,-4.10
2019-02-16T03:01:26.449Z,-4.20
2019-02-16T03:03:53.838Z,-4.20
2019-02-16T03:06:21.150Z,-4.10
2019-02-16T03:08:48.656Z,-3.90
2019-02-16T03:11:16.059Z,-3.80
2019-02-16T03:13:43.427Z,-3.80
2019-02-16T03:16:10.955Z,-3.80
2019-02-16T03:18:38.540Z,-3.90
2019-02-16T03:21:05.932Z,-4.10
2019-02-16T03:23:33.291Z,-4.30
2019-02-16T03:26:03.098Z,-4.40
2019-02-16T03:28:34.889Z,-4.50
2019-02-16T03:31:19.714Z,-4.50
2019-02-16T03:33:49.319Z,-4.60
2019-02-16T03:36:49.272Z,-4.70
2019-02-16T03:39:21.148Z,-4.70
2019-02-16T03:41:48.543Z,-4.60
2019-02-16T03:44:15.983Z,-4.60
2019-02-16T03:46:43.487Z,-4.60
2019-02-16T03:49:10.914Z,-4.60
2019-02-16T03:51:38.345Z,-4.40
2019-02-16T03:54:05.846Z,-4.20
2019-02-16T03:56:33.491Z,-4.10
2019-02-16T03:59:02.888Z,-4.10
2019-02-16T04:01:31.842Z,-4.20
2019-02-16T04:04:02.328Z,-4.20
2019-02-16T04:06:29.542Z,-4.20
2019-02-16T04:08:56.835Z,-4.20
2019-02-16T04:11:25.411Z,-4.20
2019-02-16T04:13:52.738Z,-4.40
2019-02-16T04:16:20.242Z,-4.40
2019-02-16T04:18:47.678Z,-4.40
2019-02-16T04:21:14.947Z,-4.40
2019-02-16T04:23:42.269Z,-4.50
2019-02-16T04:26:09.746Z,-4.40
2019-02-16T04:28:37.067Z,-4.40
2019-02-16T04:31:05.573Z,-4.30
2019-02-16T04:33:33.101Z,-4.30
2019-02-16T04:36:00.555Z,-4.30
2019-02-16T04:38:27.979Z,-4.40
2019-02-16T04:40:55.372Z,-4.50
2019-02-16T04:43:22.871Z,-4.60
2019-02-16T04:45:51.439Z,-4.50
2019-02-16T04:48:18.800Z,-4.50
2019-02-16T04:50:46.115Z,-4.50
2019-02-16T04:53:13.303Z,-4.60
2019-02-16T04:55:40.859Z,-4.70
2019-02-16T04:58:08.336Z,-4.80
2019-02-16T05:00:35.669Z,-4.70
2019-02-16T05:03:03.100Z,-4.70
2019-02-16T05:05:30.500Z,-4.60
2019-02-16T05:07:57.904Z,-4.70
2019-02-16T05:10:25.335Z,-4.80
2019-02-16T05:12:52.843Z,-4.80
2019-02-16T05:15:20.298Z,-4.90
2019-02-16T05:17:47.546Z,-4.90
2019-02-16T05:20:14.991Z,-4.90
2019-02-16T05:22:44.621Z,-5.00
2019-02-16T05:25:11.331Z,-5.00
2019-02-16T05:27:38.811Z,-5.00
2019-02-16T05:30:06.444Z,-5.10
2019-02-16T05:32:33.564Z,-5.10
2019-02-16T05:35:01.053Z,-5.00
2019-02-16T05:37:30.417Z,-5.00
2019-02-16T05:39:57.698Z,-5.00
2019-02-16T05:42:25.372Z,-4.90
2019-02-16T05:44:52.856Z,-4.90
2019-02-16T05:47:20.236Z,-4.90
2019-02-16T05:49:47.555Z,-4.90
2019-02-16T05:52:14.920Z,-4.90
2019-02-16T05:54:42.279Z,-4.90
2019-02-16T05:57:09.712Z,-5.00
2019-02-16T05:59:38.192Z,-5.10
2019-02-16T06:02:05.661Z,-5.10
2019-02-16T06:04:33.096Z,-5.10
2019-02-16T06:07:00.563Z,-5.10
2019-02-16T06:09:28.630Z,-5.10
2019-02-16T06:11:56.366Z,-5.10
2019-02-16T06:14:24.202Z,-5.10
2019-02-16T06:16:51.733Z,-5.20
2019-02-16T06:19:19.479Z,-5.00
2019-02-16T06:21:47.242Z,-5.00
2019-02-16T06:24:14.873Z,-5.00
2019-02-16T06:26:42.402Z,-5.00
2019-02-16T06:29:10.294Z,-5.00
2019-02-16T06:31:38.018Z,-5.00
2019-02-16T06:34:05.587Z,-4.30
2019-02-16T06:36:37.352Z,-3.40
2019-02-16T06:39:05.432Z,-3.80
2019-02-16T06:41:33.002Z,-4.10
2019-02-16T06:44:01.399Z,-4.30
2019-02-16T06:46:33.432Z,-4.40
2019-02-16T06:49:01.721Z,-4.40
2019-02-16T06:51:29.282Z,-4.30
2019-02-16T06:53:56.815Z,-4.20
2019-02-16T06:56:34.143Z,-4.10
2019-02-16T06:59:01.553Z,-3.90
2019-02-16T07:01:28.986Z,-3.60
2019-02-16T07:03:56.425Z,-3.50
2019-02-16T07:06:24.679Z,-3.40
2019-02-16T07:08:53.948Z,-3.30
2019-02-16T07:11:21.381Z,-3.30
2019-02-16T07:13:52.341Z,-3.20
2019-02-16T07:16:40.481Z,-3.00
2019-02-16T07:19:28.913Z,-2.90
2019-02-16T07:21:58.304Z,-2.80
2019-02-16T07:24:25.585Z,-2.70
2019-02-16T07:26:53.172Z,-2.60
2019-02-16T07:29:20.693Z,-2.40
2019-02-16T07:31:48.176Z,-2.30
2019-02-16T07:34:15.714Z,-2.10
2019-02-16T07:36:43.365Z,-2.00
2019-02-16T07:39:10.927Z,-1.90
2019-02-16T07:41:38.277Z,-1.80
2019-02-16T07:44:31.032Z,-1.70
2019-02-16T07:47:11.171Z,-1.50
2019-02-16T07:49:50.318Z,-1.30
2019-02-16T07:52:29.033Z,-1.20
2019-02-16T07:55:01.899Z,-1.10
2019-02-16T07:57:43.699Z,-1.00
2019-02-16T08:00:20.883Z,-0.80
2019-02-16T08:03:06.400Z,-0.70
2019-02-16T08:05:51.075Z,-0.60
2019-02-16T08:08:49.620Z,-0.50
2019-02-16T08:11:37.204Z,-0.50
2019-02-16T08:14:34.096Z,-0.40
2019-02-16T08:17:08.689Z,-0.30
2019-02-16T08:19:55.580Z,-0.20
2019-02-16T08:22:36.704Z,-0.10
2019-02-16T08:25:29.433Z,0.10
2019-02-16T08:28:16.162Z,0.30
2019-02-16T08:31:07.785Z,0.50
2019-02-16T08:34:06.446Z,0.60
2019-02-16T08:36:48.775Z,0.80
2019-02-16T08:39:30.264Z,0.90
2019-02-16T08:42:20.554Z,1.00
2019-02-16T08:45:10.051Z,1.10
2019-02-16T08:47:56.958Z,1.20
2019-02-16T08:50:43.640Z,1.30
2019-02-16T08:53:30.253Z,1.40
2019-02-16T08:56:16.773Z,1.50
2019-02-16T08:59:04.285Z,1.60
2019-02-16T09:01:53.765Z,1.70
2019-02-16T09:04:46.017Z,1.80
2019-02-16T09:07:41.659Z,1.90
2019-02-16T09:10:27.601Z,2.00
2019-02-16T09:13:09.303Z,2.10
2019-02-16T09:15:55.350Z,2.20
2019-02-16T09:18:52.946Z,2.30
2019-02-16T09:21:42.875Z,2.40
2019-02-16T09:24:30.560Z,2.70
2019-02-16T09:27:34.882Z,2.80
2019-02-16T09:30:29.892Z,3.00
2019-02-16T09:33:21.702Z,3.10
2019-02-16T09:36:10.058Z,3.10
2019-02-16T09:38:58.659Z,3.20
2019-02-16T09:41:48.182Z,3.20
2019-02-16T09:44:35.307Z,3.30
2019-02-16T09:47:38.297Z,3.40
2019-02-16T09:50:33.426Z,3.60
2019-02-16T09:53:09.487Z,3.70
2019-02-16T09:55:54.930Z,3.90
2019-02-16T09:58:48.868Z,4.00
2019-02-16T10:01:47.258Z,4.20
2019-02-16T10:04:35.770Z,4.40
2019-02-16T10:07:42.524Z,4.50
2019-02-16T10:10:41.804Z,4.60
2019-02-16T10:13:20.193Z,4.80
2019-02-16T10:16:18.371Z,5.00
2019-02-16T10:19:02.493Z,5.00
2019-02-16T10:22:07.715Z,5.10
2019-02-16T10:24:49.765Z,5.20
2019-02-16T10:27:33.675Z,5.30
2019-02-16T10:30:42.547Z,5.50
2019-02-16T10:33:43.479Z,5.60
2019-02-16T10:36:40.963Z,5.70
2019-02-16T10:39:52.938Z,5.80
2019-02-16T10:42:48.670Z,6.00
2019-02-16T10:45:44.478Z,6.10
2019-02-16T10:48:57.383Z,6.10
2019-02-16T10:51:57.053Z,6.20
2019-02-16T10:54:51.315Z,6.40
2019-02-16T10:57:52.807Z,6.60
2019-02-16T11:00:53.072Z,6.80
2019-02-16T11:03:53.275Z,6.90
2019-02-16T11:07:10.291Z,7.00
2019-02-16T11:10:18.721Z,7.10
2019-02-16T11:13:21.566Z,7.20
2019-02-16T11:16:23.235Z,7.20
2019-02-16T11:19:41.964Z,7.40
2019-02-16T11:22:53.146Z,7.50
2019-02-16T11:25:58.334Z,7.50
2019-02-16T11:28:49.875Z,7.60
2019-02-16T11:31:51.678Z,7.70
2019-02-16T11:34:59.218Z,7.80
2019-02-16T11:38:03.872Z,7.80
2019-02-16T11:41:00.786Z,7.90
2019-02-16T11:44:09.153Z,8.10
2019-02-16T11:47:37.757Z,8.10
2019-02-16T11:50:45.179Z,8.20
2019-02-16T11:53:24.500Z,8.30
2019-02-16T11:56:02.078Z,8.40
2019-02-16T11:58:51.577Z,8.50
2019-02-16T12:01:44.017Z,8.50
2019-02-16T12:04:23.432Z,8.60
2019-02-16T12:06:58.049Z,8.70
2019-02-16T12:09:57.587Z,8.80
2019-02-16T12:12:35.080Z,8.80
2019-02-16T12:15:20.748Z,8.90
2019-02-16T12:18:12.036Z,8.90
2019-02-16T12:20:50.288Z,8.90
2019-02-16T12:23:37.780Z,9.10
2019-02-16T12:26:14.566Z,9.20
2019-02-16T12:28:56.631Z,9.20
2019-02-16T12:31:34.854Z,9.20
2019-02-16T12:34:15.542Z,9.20
2019-02-16T12:36:50.718Z,9.30
2019-02-16T12:39:41.164Z,9.30
2019-02-16T12:42:34.758Z,9.30
2019-02-16T12:45:40.564Z,9.30
2019-02-16T12:48:29.704Z,9.40
2019-02-16T12:51:19.078Z,9.50
2019-02-16T12:54:15.960Z,9.80
2019-02-16T12:56:50.608Z,10.00
2019-02-16T12:59:42.743Z,10.30
2019-02-16T13:02:42.092Z,10.30
2019-02-16T13:05:29.432Z,10.30
2019-02-16T13:08:16.783Z,10.40
2019-02-16T13:11:00.196Z,10.40
2019-02-16T13:13:42.140Z,10.40
2019-02-16T13:16:32.512Z,10.40
2019-02-16T13:19:28.580Z,10.50
2019-02-16T13:22:16.012Z,10.30
2019-02-16T13:24:51.057Z,10.30
2019-02-16T13:27:54.841Z,10.30
2019-02-16T13:31:01.242Z,10.20
2019-02-16T13:34:09.950Z,10.20
2019-02-16T13:37:22.710Z,10.30
2019-02-16T13:40:32.072Z,10.30
2019-02-16T13:43:29.995Z,10.40
2019-02-16T13:46:27.127Z,10.40
2019-02-16T13:49:24.479Z,10.30
2019-02-16T13:52:28.505Z,10.20
2019-02-16T13:55:33.757Z,10.20
2019-02-16T13:58:44.742Z,10.40
2019-02-16T14:01:50.235Z,10.70
2019-02-16T14:04:43.929Z,10.70
2019-02-16T14:08:01.190Z,10.80
2019-02-16T14:11:13.894Z,10.70
2019-02-16T14:14:31.645Z,10.80
2019-02-16T14:17:37.973Z,10.80
2019-02-16T14:20:32.641Z,10.70
2019-02-16T14:23:08.696Z,10.70
2019-02-16T14:25:57.363Z,10.70
2019-02-16T14:28:37.239Z,10.60
2019-02-16T14:31:28.388Z,10.90
2019-02-16T14:34:07.144Z,10.80
2019-02-16T14:36:59.521Z,10.70
2019-02-16T14:39:51.681Z,10.50
2019-02-16T14:42:50.728Z,10.50
2019-02-16T14:45:47.072Z,10.60
2019-02-16T14:48:41.125Z,10.60
2019-02-16T14:51:32.693Z,10.70
2019-02-16T14:54:24.674Z,10.70
2019-02-16T14:57:15.848Z,10.70
2019-02-16T15:00:17.238Z,10.60
2019-02-16T15:03:08.719Z,10.50
2019-02-16T15:06:04.057Z,10.40
2019-02-16T15:08:59.669Z,10.40
2019-02-16T15:11:53.175Z,10.50
2019-02-16T15:14:46.990Z,10.40
2019-02-16T15:17:46.083Z,10.50
2019-02-16T15:20:40.621Z,10.40
2019-02-16T15:23:47.169Z,10.40
2019-02-16T15:26:53.695Z,10.40
2019-02-16T15:29:47.881Z,10.50
2019-02-16T15:32:45.997Z,10.50
2019-02-16T15:35:44.349Z,10.30
2019-02-16T15:38:41.349Z,10.10
2019-02-16T15:41:34.477Z,10.00
2019-02-16T15:44:27.801Z,10.00
2019-02-16T15:47:12.408Z,9.90
2019-02-16T15:50:04.436Z,9.80
2019-02-16T15:53:01.234Z,9.90
2019-02-16T15:55:59.015Z,9.90
2019-02-16T15:58:52.990Z,9.70
2019-02-16T16:01:52.256Z,9.60
2019-02-16T16:04:40.124Z,9.30
2019-02-16T16:07:29.909Z,9.00
2019-02-16T16:10:26.885Z,9.00
2019-02-16T16:13:27.976Z,8.90
2019-02-16T16:16:33.703Z,8.70
2019-02-16T16:19:40.011Z,8.70
2019-02-16T16:22:33.319Z,8.60
2019-02-16T16:25:19.487Z,8.30
2019-02-16T16:28:05.278Z,8.20
2019-02-16T16:30:48.130Z,8.00
2019-02-16T16:33:37.399Z,7.70
2019-02-16T16:36:34.555Z,7.50
2019-02-16T16:39:38.380Z,7.20
2019-02-16T16:42:47.703Z,7.00
2019-02-16T16:46:08.999Z,7.00
2019-02-16T16:49:21.285Z,7.00
2019-02-16T16:52:34.259Z,6.90
2019-02-16T16:55:48.304Z,6.70
2019-02-16T16:59:00.510Z,6.50
2019-02-16T17:02:06.701Z,6.30
2019-02-16T17:05:10.701Z,5.80
2019-02-16T17:08:11.292Z,5.50
2019-02-16T17:11:04.970Z,5.10
2019-02-16T17:13:57.991Z,4.90
2019-02-16T17:16:55.713Z,4.70
2019-02-16T17:19:47.899Z,4.40
2019-02-16T17:22:46.858Z,4.30
2019-02-16T17:25:50.661Z,4.10
2019-02-16T17:28:56.597Z,4.00
2019-02-16T17:32:10.933Z,4.00
2019-02-16T17:35:12.630Z,4.00
2019-02-16T17:37:59.698Z,4.00
2019-02-16T17:40:53.679Z,3.90
2019-02-16T17:43:51.621Z,3.80
2019-02-16T17:46:46.902Z,3.80
2019-02-16T17:49:46.304Z,3.70
2019-02-16T17:52:39.430Z,3.50
2019-02-16T17:55:22.729Z,3.30
2019-02-16T17:58:16.052Z,3.20
2019-02-16T18:01:12.984Z,3.10
2019-02-16T18:04:04.616Z,2.90
2019-02-16T18:07:02.263Z,3.00
2019-02-16T18:10:02.854Z,3.00
2019-02-16T18:13:02.458Z,2.90
2019-02-16T18:16:11.782Z,2.80
2019-02-16T18:19:10.831Z,2.80
2019-02-16T18:22:11.465Z,2.70
2019-02-16T18:24:57.565Z,2.70
2019-02-16T18:27:59.431Z,2.80
2019-02-16T18:30:35.119Z,2.60
2019-02-16T18:33:24.315Z,2.50
2019-02-16T18:36:25.016Z,2.50
2019-02-16T18:39:37.497Z,2.40
2019-02-16T18:42:49.081Z,2.30
2019-02-16T18:45:50.978Z,2.20
2019-02-16T18:48:50.212Z,2.10
2019-02-16T18:52:00.092Z,1.90
2019-02-16T18:55:22.635Z,1.80
2019-02-16T18:58:15.609Z,1.60
2019-02-16T19:01:13.612Z,1.60
2019-02-16T19:04:20.009Z,1.50
2019-02-16T19:07:12.529Z,1.20
2019-02-16T19:10:25.646Z,1.00
2019-02-16T19:13:29.468Z,0.80
2019-02-16T19:16:27.382Z,0.70
2019-02-16T19:19:25.519Z,0.60
2019-02-16T19:22:22.048Z,0.40
2019-02-16T19:25:25.190Z,0.30
2019-02-16T19:28:19.695Z,0.20
2019-02-16T19:31:17.427Z,0.20
2019-02-16T19:34:27.234Z,0.20
2019-02-16T19:37:36.805Z,0.30
2019-02-16T19:40:34.720Z,0.20
2019-02-16T19:43:44.046Z,0.20
2019-02-16T19:46:37.524Z,0.10
2019-02-16T19:49:37.196Z,0.10
2019-02-16T19:52:34.728Z,0.10
2019-02-16T19:55:34.112Z,0.00
2019-02-16T19:58:27.847Z,0.00
2019-02-16T20:01:25.395Z,0.10
2019-02-16T20:04:26.980Z,0.20
2019-02-16T20:07:27.153Z,0.20
2019-02-16T20:10:33.702Z,0.00
2019-02-16T20:13:30.296Z,-0.10
2019-02-16T20:16:27.535Z,-0.20
2019-02-16T20:19:15.616Z,-0.20
2019-02-16T20:22:14.093Z,-0.30
2019-02-16T20:25:25.525Z,-0.40
2019-02-16T20:28:22.470Z,-0.50
2019-02-16T20:31:15.858Z,-0.70
2019-02-16T20:34:06.196Z,-0.80
2019-02-16T20:37:01.912Z,-1.00
2019-02-16T20:40:05.530Z,-1.10
2019-02-16T20:43:09.622Z,-1.20
2019-02-16T20:46:04.465Z,-1.30
2019-02-16T20:49:09.195Z,-1.30
2019-02-16T20:52:12.660Z,-1.30
2019-02-16T20:55:26.191Z,-1.30
2019-02-16T20:58:26.948Z,-1.40
2019-02-16T21:01:23.917Z,-1.40
2019-02-16T21:04:19.522Z,-1.40
2019-02-16T21:07:16.564Z,-1.40
2019-02-16T21:10:29.808Z,-1.40
2019-02-16T21:13:41.290Z,-1.40
2019-02-16T21:16:38.776Z,-1.50
2019-02-16T21:19:45.276Z,-1.40
2019-02-16T21:22:51.490Z,-1.40
2019-02-16T21:25:50.332Z,-1.50
2019-02-16T21:28:56.059Z,-1.60
2019-02-16T21:31:52.986Z,-1.70
2019-02-16T21:34:45.064Z,-1.80
2019-02-16T21:37:37.492Z,-1.80
2019-02-16T21:40:39.248Z,-1.80
2019-02-16T21:43:42.547Z,-1.80
2019-02-16T21:46:40.141Z,-1.80
2019-02-16T21:49:42.161Z,-1.80
2019-02-16T21:52:47.358Z,-1.80
2019-02-16T21:55:53.135Z,-1.90
2019-02-16T21:58:58.349Z,-2.00
2019-02-16T22:02:02.930Z,-1.90
2019-02-16T22:04:59.439Z,-2.00
2019-02-16T22:08:12.490Z,-2.10
2019-02-16T22:11:13.392Z,-2.10
2019-02-16T22:13:57.137Z,-2.00
2019-02-16T22:16:44.593Z,-1.90
2019-02-16T22:19:28.288Z,-1.90
2019-02-16T22:22:11.975Z,-1.80
2019-02-16T22:25:02.194Z,-2.00
2019-02-16T22:27:47.787Z,-2.00
2019-02-16T22:30:31.360Z,-2.10
2019-02-16T22:33:16.293Z,-2.20
2019-02-16T22:36:02.950Z,-2.20
2019-02-16T22:38:52.558Z,-2.30
2019-02-16T22:41:39.248Z,-2.30
2019-02-16T22:44:29.209Z,-2.30
2019-02-16T22:47:14.783Z,-2.30
2019-02-16T22:49:43.181Z,-2.40
2019-02-16T22:52:10.830Z,-2.40
2019-02-16T22:54:38.348Z,-2.40
2019-02-16T22:57:06.005Z,-2.40
2019-02-16T22:59:33.383Z,-2.40
2019-02-16T23:02:01.944Z,-2.50
2019-02-16T23:04:31.363Z,-2.60
2019-02-16T23:07:09.748Z,-2.60
2019-02-16T23:09:48.948Z,-2.70
2019-02-16T23:12:27.321Z,-2.70
2019-02-16T23:14:57.310Z,-2.80
2019-02-16T23:17:30.783Z,-2.80
2019-02-16T23:20:09.549Z,-2.90
2019-02-16T23:22:43.188Z,-2.90
2019-02-16T23:25:13.985Z,-2.90
2019-02-16T23:27:49.648Z,-2.90
2019-02-16T23:30:17.488Z,-2.90
2019-02-16T23:32:45.195Z,-2.90
2019-02-16T23:35:21.366Z,-3.00
2019-02-16T23:37:52.918Z,-3.00
2019-02-16T23:40:20.494Z,-3.00
2019-02-16T23:42:58.846Z,-3.00
2019-02-16T23:45:29.245Z,-3.00
2019-02-16T23:48:02.666Z,-3.00
2019-02-16T23:50:32.720Z,-3.00
2019-02-16T23:53:11.284Z,-3.00
2019-02-16T23:55:39.526Z,-2.90
2019-02-16T23:58:07.129Z,-2.80
